HGSO2: HUGO

Data processed at Sat Apr 22 2017 22:46


All information presented herein is the property of the government of the United States of America and may be revised or deleted at any time without prior notice.
Dissemination of this information without the expressed written consent of the Public Affairs Office, Tulsa District U.S. Army Corps of Engineers is strictly prohibited.
These data are gathered electronically and, as presented, have not undergone any form of quality control. These data are not guaranteed to be valid or correct.
Go to home page.
Go to station list.
Go to station map.


Previous Day
Next Day
Current Day


    
SHEF ID:       HGLO2     Hugo Lake
STATION TYPE:  RESERVOIR
Normal Pool:  Bottom =   390.00, Top =   404.50

               PRECIP ELEVATION   STORAGE    INFLOW   RELEASE  AIR-TEMP  WIND-DIRWIND-SPEED REL-HUMID SOLAR-RAD   VOLTAGE  BAT-LOAD
                   in        ft     ac-ft       cfs       cfs         F       deg       mph         %      W/m2      volt      volt
              Ccp-Rev   Ccp-Rev   Ccp-Rev  Regi-Rev  Regi-Rev   Ccp-Rev   Ccp-Rev   Ccp-Rev   Ccp-Rev   Ccp-Rev   Ccp-Rev   Ccp-Rev
(US/Central)
04/22 00:00      0.21    406.08    164123       122      1926     63.18    347.20     20.41     99.56      1.00     13.70     13.36
04/22 01:00      0.06    406.07    163981       192      1929     61.86    348.40     23.31     99.13      1.00     13.70     13.36
04/22 02:00      0.00    405.95    162318       240      1925     60.87    335.50     15.63     97.85      0.00     13.69     13.36
04/22 03:00      0.00    406.01    163132       261      1924     59.88    332.50     17.26     97.12      0.00     13.69     13.36
04/22 04:00      0.00    406.09    164264       395      1927     58.33    337.50     23.98     93.82      0.00     13.69     13.36
04/22 05:00      0.00    406.09    164264       325      1929     58.12    344.10     24.69     92.48      0.00     13.67     13.36
04/22 06:00      0.00    406.19    165681      1669      1931     56.91    338.00     25.10     93.03      0.00     13.68     13.36
04/22 07:00      0.00    406.17    165397      2671      1933     56.91    349.70     26.00     90.89      1.00     13.68     12.48
04/22 08:00      0.00    406.20    165822      4384      1933     56.25    352.50     28.35     80.52     40.00     13.67     12.42
04/22 09:00      0.00    406.22    166105      4975      1934     56.35    345.90     27.71     80.21    142.00     13.67     13.36
04/22 10:00      0.00    406.26    166672      5705      1935     57.04    352.20     23.69     74.54    174.00     13.67     13.36
04/22 11:00      0.00    406.27    166813      4678      1937     59.22    348.90     23.03     76.43    312.00     13.67     13.36
04/22 12:00      0.00    406.28    166955      4678      1937     60.98    348.70     24.60     69.83    691.00     13.67     13.36
04/22 13:00      0.00    406.28    166955      3651      1937     60.21    348.30     22.95     64.71    498.00     13.67     13.36
04/22 14:00      0.00    406.30    167238      3273      1938     59.11    353.90     23.35     64.83    345.00     13.67     13.36
04/22 15:00      0.00    406.31    167380      2555      1938     58.68    355.40     23.23     68.12    209.00     13.67     13.36
04/22 16:00      0.00    406.34    167805      2207      1939     58.57    349.60     25.37     71.79    160.00     13.67     13.36
04/22 17:00      0.00    406.33    167663      1174      1939     57.24    341.80     22.92     68.73    101.00     13.67     13.36
04/22 18:00      0.00    406.35    167946       483      1940     56.80    354.40     26.14     73.07     68.00     13.67     13.36
04/22 19:00      0.00    406.37    168230       131      1940     56.03    351.50     24.94     72.46    171.00     13.67     13.36
04/22 20:00      0.00    406.31    167380       159      1940     54.93    354.40     23.75     72.46      6.00     13.67     13.36
04/22 21:00      0.00    406.26    166672        80      1937     55.81    344.60     19.25     77.95      0.00     13.67     13.36
04/22 22:00      0.00    406.25    166530      ----      ----     55.04    332.80     13.97     76.91      0.00     13.67     13.36
04/22 23:00      ----      ----      ----      ----      ----      ----      ----      ----      ----      ----      ----      ----